sensor_id;sensor_type;location;lat;lon;timestamp;P1;durP1;ratioP1;P2;durP2;ratioP2
63784;SDS011;49927;48.146;11.420;2022-09-13T00:00:01;7.57;;;5.05;;
63784;SDS011;49927;48.146;11.420;2022-09-13T00:02:28;8.75;;;4.65;;
63784;SDS011;49927;48.146;11.420;2022-09-13T00:04:53;8.00;;;5.40;;
63784;SDS011;49927;48.146;11.420;2022-09-13T00:07:20;9.20;;;4.78;;
63784;SDS011;49927;48.146;11.420;2022-09-13T00:09:45;6.80;;;5.00;;
63784;SDS011;49927;48.146;11.420;2022-09-13T00:12:11;7.28;;;4.82;;
63784;SDS011;49927;48.146;11.420;2022-09-13T00:14:36;5.32;;;4.47;;
63784;SDS011;49927;48.146;11.420;2022-09-13T00:17:02;6.80;;;5.15;;
63784;SDS011;49927;48.146;11.420;2022-09-13T00:19:27;6.85;;;4.40;;
63784;SDS011;49927;48.146;11.420;2022-09-13T00:21:53;9.80;;;4.68;;
63784;SDS011;49927;48.146;11.420;2022-09-13T00:24:20;7.95;;;6.07;;
63784;SDS011;49927;48.146;11.420;2022-09-13T00:26:45;6.75;;;5.20;;
63784;SDS011;49927;48.146;11.420;2022-09-13T00:29:11;6.57;;;4.63;;
63784;SDS011;49927;48.146;11.420;2022-09-13T00:31:36;14.75;;;5.60;;
63784;SDS011;49927;48.146;11.420;2022-09-13T00:34:01;10.30;;;4.70;;
63784;SDS011;49927;48.146;11.420;2022-09-13T00:36:27;5.75;;;4.80;;
63784;SDS011;49927;48.146;11.420;2022-09-13T00:38:53;6.32;;;4.93;;
63784;SDS011;49927;48.146;11.420;2022-09-13T00:41:20;5.55;;;4.72;;
63784;SDS011;49927;48.146;11.420;2022-09-13T00:43:47;6.75;;;4.30;;
63784;SDS011;49927;48.146;11.420;2022-09-13T00:46:16;6.28;;;4.65;;
63784;SDS011;49927;48.146;11.420;2022-09-13T00:48:44;8.73;;;4.30;;
63784;SDS011;49927;48.146;11.420;2022-09-13T00:51:11;6.93;;;5.22;;
63784;SDS011;49927;48.146;11.420;2022-09-13T00:53:38;6.55;;;4.90;;
63784;SDS011;49927;48.146;11.420;2022-09-13T00:56:06;6.15;;;4.60;;
63784;SDS011;49927;48.146;11.420;2022-09-13T00:58:35;7.40;;;4.78;;
63784;SDS011;49927;48.146;11.420;2022-09-13T01:01:03;7.45;;;4.88;;
63784;SDS011;49927;48.146;11.420;2022-09-13T01:03:30;6.57;;;4.93;;
63784;SDS011;49927;48.146;11.420;2022-09-13T01:05:58;6.05;;;4.78;;
63784;SDS011;49927;48.146;11.420;2022-09-13T01:08:26;5.43;;;3.97;;
63784;SDS011;49927;48.146;11.420;2022-09-13T01:10:53;6.55;;;4.47;;
63784;SDS011;49927;48.146;11.420;2022-09-13T01:13:21;8.40;;;4.95;;
63784;SDS011;49927;48.146;11.420;2022-09-13T01:15:49;6.10;;;4.63;;
63784;SDS011;49927;48.146;11.420;2022-09-13T01:18:15;10.48;;;4.68;;
63784;SDS011;49927;48.146;11.420;2022-09-13T01:20:45;5.40;;;4.55;;
63784;SDS011;49927;48.146;11.420;2022-09-13T01:23:33;6.35;;;4.25;;
63784;SDS011;49927;48.146;11.420;2022-09-13T01:29:38;6.90;;;4.32;;
63784;SDS011;49927;48.146;11.420;2022-09-13T01:32:29;12.13;;;4.43;;
63784;SDS011;49927;48.146;11.420;2022-09-13T01:35:01;6.55;;;4.50;;
63784;SDS011;49927;48.146;11.420;2022-09-13T01:37:40;6.20;;;4.13;;
63784;SDS011;49927;48.146;11.420;2022-09-13T01:40:15;5.13;;;4.00;;
63784;SDS011;49927;48.146;11.420;2022-09-13T01:42:53;5.25;;;4.28;;
63784;SDS011;49927;48.146;11.420;2022-09-13T01:45:27;6.00;;;4.35;;
63784;SDS011;49927;48.146;11.420;2022-09-13T01:48:01;5.03;;;4.10;;
63784;SDS011;49927;48.146;11.420;2022-09-13T01:50:33;8.90;;;4.30;;
63784;SDS011;49927;48.146;11.420;2022-09-13T01:53:04;6.15;;;3.92;;
63784;SDS011;49927;48.146;11.420;2022-09-13T01:55:32;5.05;;;4.15;;
63784;SDS011;49927;48.146;11.420;2022-09-13T01:58:06;4.70;;;3.55;;
63784;SDS011;49927;48.146;11.420;2022-09-13T02:00:38;5.78;;;3.60;;
63784;SDS011;49927;48.146;11.420;2022-09-13T02:03:08;3.92;;;3.47;;
63784;SDS011;49927;48.146;11.420;2022-09-13T02:05:37;5.20;;;4.50;;
63784;SDS011;49927;48.146;11.420;2022-09-13T02:08:06;7.50;;;3.83;;
63784;SDS011;49927;48.146;11.420;2022-09-13T02:10:35;4.68;;;3.92;;
63784;SDS011;49927;48.146;11.420;2022-09-13T02:13:04;5.13;;;3.70;;
63784;SDS011;49927;48.146;11.420;2022-09-13T02:15:32;6.35;;;3.83;;
63784;SDS011;49927;48.146;11.420;2022-09-13T02:18:03;5.15;;;3.72;;
63784;SDS011;49927;48.146;11.420;2022-09-13T02:20:33;6.68;;;4.13;;
63784;SDS011;49927;48.146;11.420;2022-09-13T02:23:01;4.43;;;3.78;;
63784;SDS011;49927;48.146;11.420;2022-09-13T02:25:29;4.15;;;3.75;;
63784;SDS011;49927;48.146;11.420;2022-09-13T02:27:57;4.30;;;3.50;;
63784;SDS011;49927;48.146;11.420;2022-09-13T02:30:24;5.13;;;3.53;;
63784;SDS011;49927;48.146;11.420;2022-09-13T02:32:51;5.13;;;3.85;;
63784;SDS011;49927;48.146;11.420;2022-09-13T02:35:21;4.25;;;3.78;;
63784;SDS011;49927;48.146;11.420;2022-09-13T02:37:51;6.15;;;3.63;;
63784;SDS011;49927;48.146;11.420;2022-09-13T02:40:22;4.78;;;3.47;;
63784;SDS011;49927;48.146;11.420;2022-09-13T02:42:51;5.13;;;3.70;;
63784;SDS011;49927;48.146;11.420;2022-09-13T02:45:18;5.07;;;3.72;;
63784;SDS011;49927;48.146;11.420;2022-09-13T02:47:47;4.50;;;3.42;;
63784;SDS011;49927;48.146;11.420;2022-09-13T02:50:24;4.45;;;3.90;;
63784;SDS011;49927;48.146;11.420;2022-09-13T02:52:59;4.82;;;3.75;;
63784;SDS011;49927;48.146;11.420;2022-09-13T02:55:29;5.57;;;3.45;;
63784;SDS011;49927;48.146;11.420;2022-09-13T02:57:58;3.17;;;2.88;;
63784;SDS011;49927;48.146;11.420;2022-09-13T03:00:24;5.22;;;3.38;;
63784;SDS011;49927;48.146;11.420;2022-09-13T03:02:50;4.22;;;3.13;;
63784;SDS011;49927;48.146;11.420;2022-09-13T03:05:16;5.28;;;3.30;;
63784;SDS011;49927;48.146;11.420;2022-09-13T03:07:43;4.38;;;2.97;;
63784;SDS011;49927;48.146;11.420;2022-09-13T03:10:09;3.70;;;3.22;;
63784;SDS011;49927;48.146;11.420;2022-09-13T03:12:45;5.07;;;2.88;;
63784;SDS011;49927;48.146;11.420;2022-09-13T03:15:20;6.25;;;3.47;;
63784;SDS011;49927;48.146;11.420;2022-09-13T03:17:52;4.05;;;3.40;;
63784;SDS011;49927;48.146;11.420;2022-09-13T03:20:22;5.38;;;3.15;;
63784;SDS011;49927;48.146;11.420;2022-09-13T03:22:58;3.78;;;2.72;;
63784;SDS011;49927;48.146;11.420;2022-09-13T03:25:51;4.65;;;3.13;;
63784;SDS011;49927;48.146;11.420;2022-09-13T03:28:26;4.57;;;2.60;;
63784;SDS011;49927;48.146;11.420;2022-09-13T03:31:05;3.70;;;3.05;;
63784;SDS011;49927;48.146;11.420;2022-09-13T03:33:34;5.35;;;2.80;;
63784;SDS011;49927;48.146;11.420;2022-09-13T03:36:08;4.20;;;3.25;;
63784;SDS011;49927;48.146;11.420;2022-09-13T03:38:40;4.43;;;3.78;;
63784;SDS011;49927;48.146;11.420;2022-09-13T03:41:09;4.78;;;3.00;;
63784;SDS011;49927;48.146;11.420;2022-09-13T03:43:37;3.70;;;3.25;;
63784;SDS011;49927;48.146;11.420;2022-09-13T03:46:07;4.28;;;2.85;;
63784;SDS011;49927;48.146;11.420;2022-09-13T03:48:34;5.45;;;3.92;;
63784;SDS011;49927;48.146;11.420;2022-09-13T03:51:01;5.18;;;3.13;;
63784;SDS011;49927;48.146;11.420;2022-09-13T03:53:27;5.35;;;3.50;;
63784;SDS011;49927;48.146;11.420;2022-09-13T03:55:54;3.65;;;3.03;;
63784;SDS011;49927;48.146;11.420;2022-09-13T03:58:20;4.78;;;3.90;;
63784;SDS011;49927;48.146;11.420;2022-09-13T04:00:46;5.88;;;4.00;;
63784;SDS011;49927;48.146;11.420;2022-09-13T04:03:12;4.47;;;3.72;;
63784;SDS011;49927;48.146;11.420;2022-09-13T04:05:37;4.93;;;2.75;;
63784;SDS011;49927;48.146;11.420;2022-09-13T04:08:03;4.47;;;3.25;;
63784;SDS011;49927;48.146;11.420;2022-09-13T04:10:30;10.48;;;4.47;;
63784;SDS011;49927;48.146;11.420;2022-09-13T04:12:57;8.57;;;4.25;;
63784;SDS011;49927;48.146;11.420;2022-09-13T04:15:22;5.32;;;3.58;;
63784;SDS011;49927;48.146;11.420;2022-09-13T04:17:48;5.18;;;3.83;;
63784;SDS011;49927;48.146;11.420;2022-09-13T04:20:13;4.28;;;3.15;;
63784;SDS011;49927;48.146;11.420;2022-09-13T04:22:39;4.05;;;3.65;;
63784;SDS011;49927;48.146;11.420;2022-09-13T04:25:05;4.25;;;3.10;;
63784;SDS011;49927;48.146;11.420;2022-09-13T04:27:30;4.38;;;3.47;;
63784;SDS011;49927;48.146;11.420;2022-09-13T04:29:57;6.13;;;3.47;;
63784;SDS011;49927;48.146;11.420;2022-09-13T04:32:23;3.17;;;2.83;;
63784;SDS011;49927;48.146;11.420;2022-09-13T04:34:48;4.55;;;3.45;;
63784;SDS011;49927;48.146;11.420;2022-09-13T04:37:14;7.35;;;3.67;;
63784;SDS011;49927;48.146;11.420;2022-09-13T04:39:39;4.53;;;3.67;;
63784;SDS011;49927;48.146;11.420;2022-09-13T04:42:05;7.22;;;3.28;;
63784;SDS011;49927;48.146;11.420;2022-09-13T04:44:30;5.35;;;3.35;;
63784;SDS011;49927;48.146;11.420;2022-09-13T04:46:57;3.85;;;3.25;;
63784;SDS011;49927;48.146;11.420;2022-09-13T04:49:23;3.90;;;3.08;;
63784;SDS011;49927;48.146;11.420;2022-09-13T04:51:48;4.70;;;3.38;;
63784;SDS011;49927;48.146;11.420;2022-09-13T04:54:14;6.78;;;3.30;;
63784;SDS011;49927;48.146;11.420;2022-09-13T04:56:40;6.00;;;3.22;;
63784;SDS011;49927;48.146;11.420;2022-09-13T04:59:05;4.22;;;2.95;;
63784;SDS011;49927;48.146;11.420;2022-09-13T05:01:31;7.72;;;3.25;;
63784;SDS011;49927;48.146;11.420;2022-09-13T05:03:58;4.13;;;2.78;;
63784;SDS011;49927;48.146;11.420;2022-09-13T05:06:23;5.00;;;3.05;;
63784;SDS011;49927;48.146;11.420;2022-09-13T05:08:49;5.65;;;3.38;;
63784;SDS011;49927;48.146;11.420;2022-09-13T05:11:15;3.85;;;2.95;;
63784;SDS011;49927;48.146;11.420;2022-09-13T05:13:41;5.75;;;3.15;;
63784;SDS011;49927;48.146;11.420;2022-09-13T05:16:06;5.63;;;3.92;;
63784;SDS011;49927;48.146;11.420;2022-09-13T05:18:32;7.15;;;3.15;;
63784;SDS011;49927;48.146;11.420;2022-09-13T05:21:01;7.88;;;2.95;;
63784;SDS011;49927;48.146;11.420;2022-09-13T05:23:28;4.35;;;2.95;;
63784;SDS011;49927;48.146;11.420;2022-09-13T05:25:55;5.10;;;3.28;;
63784;SDS011;49927;48.146;11.420;2022-09-13T05:28:21;2.70;;;2.47;;
63784;SDS011;49927;48.146;11.420;2022-09-13T05:30:53;5.35;;;3.08;;
63784;SDS011;49927;48.146;11.420;2022-09-13T05:33:19;6.38;;;3.33;;
63784;SDS011;49927;48.146;11.420;2022-09-13T05:35:44;8.95;;;2.95;;
63784;SDS011;49927;48.146;11.420;2022-09-13T05:38:11;3.55;;;3.00;;
63784;SDS011;49927;48.146;11.420;2022-09-13T05:40:37;3.85;;;3.03;;
63784;SDS011;49927;48.146;11.420;2022-09-13T05:43:02;6.00;;;3.20;;
63784;SDS011;49927;48.146;11.420;2022-09-13T05:45:27;3.47;;;2.45;;
63784;SDS011;49927;48.146;11.420;2022-09-13T05:47:53;9.00;;;2.80;;
63784;SDS011;49927;48.146;11.420;2022-09-13T05:50:18;5.10;;;2.80;;
63784;SDS011;49927;48.146;11.420;2022-09-13T05:52:44;3.35;;;2.63;;
63784;SDS011;49927;48.146;11.420;2022-09-13T05:55:17;8.35;;;3.00;;
63784;SDS011;49927;48.146;11.420;2022-09-13T05:57:43;4.30;;;2.95;;
63784;SDS011;49927;48.146;11.420;2022-09-13T06:00:09;5.18;;;2.83;;
63784;SDS011;49927;48.146;11.420;2022-09-13T06:02:35;3.40;;;2.70;;
63784;SDS011;49927;48.146;11.420;2022-09-13T06:05:00;5.50;;;3.33;;
63784;SDS011;49927;48.146;11.420;2022-09-13T06:07:26;5.85;;;3.50;;
63784;SDS011;49927;48.146;11.420;2022-09-13T06:09:51;3.25;;;2.30;;
63784;SDS011;49927;48.146;11.420;2022-09-13T06:12:18;4.57;;;2.78;;
63784;SDS011;49927;48.146;11.420;2022-09-13T06:14:43;5.03;;;2.60;;
63784;SDS011;49927;48.146;11.420;2022-09-13T06:17:09;4.88;;;2.33;;
63784;SDS011;49927;48.146;11.420;2022-09-13T06:19:34;10.63;;;3.05;;
63784;SDS011;49927;48.146;11.420;2022-09-13T06:22:00;2.40;;;1.85;;
63784;SDS011;49927;48.146;11.420;2022-09-13T06:24:25;2.33;;;1.90;;
63784;SDS011;49927;48.146;11.420;2022-09-13T06:26:51;2.50;;;2.10;;
63784;SDS011;49927;48.146;11.420;2022-09-13T06:29:18;2.47;;;2.00;;
63784;SDS011;49927;48.146;11.420;2022-09-13T06:31:43;1.90;;;1.50;;
63784;SDS011;49927;48.146;11.420;2022-09-13T06:34:10;3.55;;;1.45;;
63784;SDS011;49927;48.146;11.420;2022-09-13T06:36:36;2.22;;;1.42;;
63784;SDS011;49927;48.146;11.420;2022-09-13T06:39:01;2.10;;;1.65;;
63784;SDS011;49927;48.146;11.420;2022-09-13T06:41:27;2.88;;;1.40;;
63784;SDS011;49927;48.146;11.420;2022-09-13T06:43:52;2.53;;;1.77;;
63784;SDS011;49927;48.146;11.420;2022-09-13T06:46:20;1.33;;;1.23;;
63784;SDS011;49927;48.146;11.420;2022-09-13T06:48:45;1.35;;;1.13;;
63784;SDS011;49927;48.146;11.420;2022-09-13T06:51:12;2.70;;;1.50;;
63784;SDS011;49927;48.146;11.420;2022-09-13T06:53:38;2.53;;;1.55;;
63784;SDS011;49927;48.146;11.420;2022-09-13T06:56:05;1.65;;;1.20;;
63784;SDS011;49927;48.146;11.420;2022-09-13T06:58:33;1.40;;;1.25;;
63784;SDS011;49927;48.146;11.420;2022-09-13T07:01:06;1.85;;;1.38;;
63784;SDS011;49927;48.146;11.420;2022-09-13T07:03:33;2.05;;;1.85;;
63784;SDS011;49927;48.146;11.420;2022-09-13T07:05:59;1.92;;;1.52;;
63784;SDS011;49927;48.146;11.420;2022-09-13T07:08:24;1.40;;;1.30;;
63784;SDS011;49927;48.146;11.420;2022-09-13T07:10:50;1.67;;;1.33;;
63784;SDS011;49927;48.146;11.420;2022-09-13T07:13:15;4.57;;;1.38;;
63784;SDS011;49927;48.146;11.420;2022-09-13T07:15:40;3.47;;;1.35;;
63784;SDS011;49927;48.146;11.420;2022-09-13T07:18:06;2.25;;;1.70;;
63784;SDS011;49927;48.146;11.420;2022-09-13T07:20:33;2.05;;;1.27;;
63784;SDS011;49927;48.146;11.420;2022-09-13T07:22:58;3.92;;;1.40;;
63784;SDS011;49927;48.146;11.420;2022-09-13T07:25:24;3.00;;;1.35;;
63784;SDS011;49927;48.146;11.420;2022-09-13T07:27:49;3.75;;;2.58;;
63784;SDS011;49927;48.146;11.420;2022-09-13T07:30:15;1.38;;;1.08;;
63784;SDS011;49927;48.146;11.420;2022-09-13T07:32:40;3.35;;;1.73;;
63784;SDS011;49927;48.146;11.420;2022-09-13T07:35:06;1.88;;;1.42;;
63784;SDS011;49927;48.146;11.420;2022-09-13T07:37:33;1.73;;;1.30;;
63784;SDS011;49927;48.146;11.420;2022-09-13T07:39:58;1.50;;;1.10;;
63784;SDS011;49927;48.146;11.420;2022-09-13T07:42:24;2.88;;;1.27;;
63784;SDS011;49927;48.146;11.420;2022-09-13T07:44:49;14.32;;;1.50;;
63784;SDS011;49927;48.146;11.420;2022-09-13T07:47:15;4.07;;;1.17;;
63784;SDS011;49927;48.146;11.420;2022-09-13T07:49:40;1.92;;;1.25;;
63784;SDS011;49927;48.146;11.420;2022-09-13T07:52:05;11.25;;;3.47;;
63784;SDS011;49927;48.146;11.420;2022-09-13T07:54:32;1.48;;;1.23;;
63784;SDS011;49927;48.146;11.420;2022-09-13T07:56:58;1.58;;;1.17;;
63784;SDS011;49927;48.146;11.420;2022-09-13T07:59:23;5.03;;;1.15;;
63784;SDS011;49927;48.146;11.420;2022-09-13T08:01:49;3.13;;;0.90;;
63784;SDS011;49927;48.146;11.420;2022-09-13T08:04:16;1.83;;;1.08;;
63784;SDS011;49927;48.146;11.420;2022-09-13T08:06:43;2.33;;;1.00;;
63784;SDS011;49927;48.146;11.420;2022-09-13T08:09:09;1.23;;;1.13;;
63784;SDS011;49927;48.146;11.420;2022-09-13T08:11:37;4.75;;;1.42;;
63784;SDS011;49927;48.146;11.420;2022-09-13T08:14:03;1.95;;;1.10;;
63784;SDS011;49927;48.146;11.420;2022-09-13T08:16:30;1.90;;;1.00;;
63784;SDS011;49927;48.146;11.420;2022-09-13T08:18:56;3.17;;;1.17;;
63784;SDS011;49927;48.146;11.420;2022-09-13T08:21:23;1.73;;;1.23;;
63784;SDS011;49927;48.146;11.420;2022-09-13T08:23:52;2.47;;;1.00;;
63784;SDS011;49927;48.146;11.420;2022-09-13T08:26:18;2.08;;;1.10;;
63784;SDS011;49927;48.146;11.420;2022-09-13T08:28:45;1.25;;;0.95;;
63784;SDS011;49927;48.146;11.420;2022-09-13T08:31:11;1.80;;;1.08;;
63784;SDS011;49927;48.146;11.420;2022-09-13T08:33:38;1.88;;;0.90;;
63784;SDS011;49927;48.146;11.420;2022-09-13T08:36:03;3.25;;;1.08;;
63784;SDS011;49927;48.146;11.420;2022-09-13T08:38:29;0.80;;;0.77;;
63784;SDS011;49927;48.146;11.420;2022-09-13T08:40:57;2.15;;;0.88;;
63784;SDS011;49927;48.146;11.420;2022-09-13T08:43:26;1.38;;;1.20;;
63784;SDS011;49927;48.146;11.420;2022-09-13T08:46:00;4.90;;;2.10;;
63784;SDS011;49927;48.146;11.420;2022-09-13T08:48:29;2.22;;;1.10;;
63784;SDS011;49927;48.146;11.420;2022-09-13T08:50:57;9.00;;;1.67;;
63784;SDS011;49927;48.146;11.420;2022-09-13T08:53:28;2.85;;;1.20;;
63784;SDS011;49927;48.146;11.420;2022-09-13T08:55:56;2.20;;;1.30;;
63784;SDS011;49927;48.146;11.420;2022-09-13T08:58:37;2.78;;;1.00;;
63784;SDS011;49927;48.146;11.420;2022-09-13T09:01:12;1.38;;;0.90;;
63784;SDS011;49927;48.146;11.420;2022-09-13T09:03:45;1.15;;;1.05;;
63784;SDS011;49927;48.146;11.420;2022-09-13T09:06:14;1.15;;;0.88;;
63784;SDS011;49927;48.146;11.420;2022-09-13T09:08:42;1.48;;;1.38;;
63784;SDS011;49927;48.146;11.420;2022-09-13T09:11:19;3.22;;;1.23;;
63784;SDS011;49927;48.146;11.420;2022-09-13T09:13:51;6.20;;;1.25;;
63784;SDS011;49927;48.146;11.420;2022-09-13T09:16:25;1.67;;;1.13;;
63784;SDS011;49927;48.146;11.420;2022-09-13T09:19:01;1.20;;;0.90;;
63784;SDS011;49927;48.146;11.420;2022-09-13T09:21:33;3.25;;;1.27;;
63784;SDS011;49927;48.146;11.420;2022-09-13T09:24:04;2.80;;;1.55;;
63784;SDS011;49927;48.146;11.420;2022-09-13T09:26:30;1.00;;;0.90;;
63784;SDS011;49927;48.146;11.420;2022-09-13T09:28:57;2.45;;;0.80;;
63784;SDS011;49927;48.146;11.420;2022-09-13T09:31:26;1.98;;;1.17;;
63784;SDS011;49927;48.146;11.420;2022-09-13T09:33:59;1.20;;;0.93;;
63784;SDS011;49927;48.146;11.420;2022-09-13T09:36:34;2.70;;;1.00;;
63784;SDS011;49927;48.146;11.420;2022-09-13T09:39:02;2.25;;;0.93;;
63784;SDS011;49927;48.146;11.420;2022-09-13T09:41:29;3.63;;;1.02;;
63784;SDS011;49927;48.146;11.420;2022-09-13T09:43:58;1.77;;;1.30;;
63784;SDS011;49927;48.146;11.420;2022-09-13T09:46:28;1.73;;;1.15;;
63784;SDS011;49927;48.146;11.420;2022-09-13T09:48:56;1.65;;;1.20;;
63784;SDS011;49927;48.146;11.420;2022-09-13T09:51:24;3.03;;;1.30;;
63784;SDS011;49927;48.146;11.420;2022-09-13T09:53:52;5.97;;;1.13;;
63784;SDS011;49927;48.146;11.420;2022-09-13T09:56:20;5.55;;;1.10;;
63784;SDS011;49927;48.146;11.420;2022-09-13T09:58:47;1.48;;;1.08;;
63784;SDS011;49927;48.146;11.420;2022-09-13T10:01:13;1.08;;;0.98;;
63784;SDS011;49927;48.146;11.420;2022-09-13T10:03:46;1.00;;;0.80;;
63784;SDS011;49927;48.146;11.420;2022-09-13T10:06:17;1.95;;;1.10;;
63784;SDS011;49927;48.146;11.420;2022-09-13T10:08:46;2.38;;;1.20;;
63784;SDS011;49927;48.146;11.420;2022-09-13T10:11:13;1.65;;;1.20;;
63784;SDS011;49927;48.146;11.420;2022-09-13T10:13:39;1.17;;;1.05;;
63784;SDS011;49927;48.146;11.420;2022-09-13T10:16:22;5.57;;;1.40;;
63784;SDS011;49927;48.146;11.420;2022-09-13T10:18:51;0.98;;;0.98;;
63784;SDS011;49927;48.146;11.420;2022-09-13T10:21:21;1.35;;;1.25;;
63784;SDS011;49927;48.146;11.420;2022-09-13T10:23:48;0.93;;;0.93;;
63784;SDS011;49927;48.146;11.420;2022-09-13T10:26:14;1.20;;;1.02;;
63784;SDS011;49927;48.146;11.420;2022-09-13T10:28:42;2.25;;;1.83;;
63784;SDS011;49927;48.146;11.420;2022-09-13T10:31:10;1.55;;;1.38;;
63784;SDS011;49927;48.146;11.420;2022-09-13T10:33:38;1.50;;;1.15;;
63784;SDS011;49927;48.146;11.420;2022-09-13T10:36:06;4.72;;;1.23;;
63784;SDS011;49927;48.146;11.420;2022-09-13T10:38:36;1.38;;;1.08;;
63784;SDS011;49927;48.146;11.420;2022-09-13T10:41:04;0.80;;;0.80;;
63784;SDS011;49927;48.146;11.420;2022-09-13T10:43:31;1.58;;;1.40;;
63784;SDS011;49927;48.146;11.420;2022-09-13T10:45:57;1.45;;;1.17;;
63784;SDS011;49927;48.146;11.420;2022-09-13T10:48:24;1.48;;;0.90;;
63784;SDS011;49927;48.146;11.420;2022-09-13T10:51:00;3.10;;;1.48;;
63784;SDS011;49927;48.146;11.420;2022-09-13T10:53:31;1.70;;;1.40;;
63784;SDS011;49927;48.146;11.420;2022-09-13T10:55:58;2.05;;;1.13;;
63784;SDS011;49927;48.146;11.420;2022-09-13T10:58:24;2.63;;;1.30;;
63784;SDS011;49927;48.146;11.420;2022-09-13T11:03:57;2.95;;;1.30;;
63784;SDS011;49927;48.146;11.420;2022-09-13T11:06:31;2.22;;;1.00;;
63784;SDS011;49927;48.146;11.420;2022-09-13T11:09:05;0.85;;;0.85;;
63784;SDS011;49927;48.146;11.420;2022-09-13T11:11:35;1.30;;;1.10;;
63784;SDS011;49927;48.146;11.420;2022-09-13T11:14:07;0.95;;;0.95;;
63784;SDS011;49927;48.146;11.420;2022-09-13T11:22:14;3.60;;;1.10;;
63784;SDS011;49927;48.146;11.420;2022-09-13T11:24:53;2.17;;;0.90;;
63784;SDS011;49927;48.146;11.420;2022-09-13T11:27:43;1.30;;;1.00;;
63784;SDS011;49927;48.146;11.420;2022-09-13T11:30:14;1.42;;;1.05;;
63784;SDS011;49927;48.146;11.420;2022-09-13T11:32:57;0.80;;;0.80;;
63784;SDS011;49927;48.146;11.420;2022-09-13T11:35:41;2.80;;;0.93;;
63784;SDS011;49927;48.146;11.420;2022-09-13T11:38:21;2.83;;;0.77;;
63784;SDS011;49927;48.146;11.420;2022-09-13T11:41:09;1.60;;;1.13;;
63784;SDS011;49927;48.146;11.420;2022-09-13T11:43:43;1.27;;;1.17;;
63784;SDS011;49927;48.146;11.420;2022-09-13T11:46:21;0.95;;;0.75;;
63784;SDS011;49927;48.146;11.420;2022-09-13T11:49:00;1.92;;;1.27;;
63784;SDS011;49927;48.146;11.420;2022-09-13T11:51:36;1.77;;;1.15;;
63784;SDS011;49927;48.146;11.420;2022-09-13T11:54:10;3.25;;;0.90;;
63784;SDS011;49927;48.146;11.420;2022-09-13T11:56:45;2.20;;;0.70;;
63784;SDS011;49927;48.146;11.420;2022-09-13T11:59:34;3.78;;;1.20;;
63784;SDS011;49927;48.146;11.420;2022-09-13T12:02:09;0.98;;;0.88;;
63784;SDS011;49927;48.146;11.420;2022-09-13T12:04:41;0.90;;;0.90;;
63784;SDS011;49927;48.146;11.420;2022-09-13T12:07:18;1.35;;;0.90;;
63784;SDS011;49927;48.146;11.420;2022-09-13T12:09:56;0.80;;;0.80;;
63784;SDS011;49927;48.146;11.420;2022-09-13T12:18:24;3.17;;;0.90;;
63784;SDS011;49927;48.146;11.420;2022-09-13T12:20:51;1.42;;;0.80;;
63784;SDS011;49927;48.146;11.420;2022-09-13T12:23:19;1.77;;;0.77;;
63784;SDS011;49927;48.146;11.420;2022-09-13T12:25:50;4.78;;;1.15;;
63784;SDS011;49927;48.146;11.420;2022-09-13T12:28:38;2.17;;;1.00;;
63784;SDS011;49927;48.146;11.420;2022-09-13T12:31:17;1.48;;;1.10;;
63784;SDS011;49927;48.146;11.420;2022-09-13T12:33:44;0.82;;;0.82;;
63784;SDS011;49927;48.146;11.420;2022-09-13T12:36:16;0.90;;;0.90;;
63784;SDS011;49927;48.146;11.420;2022-09-13T12:39:13;0.88;;;0.75;;
63784;SDS011;49927;48.146;11.420;2022-09-13T12:41:59;1.08;;;0.77;;
63784;SDS011;49927;48.146;11.420;2022-09-13T12:44:53;2.88;;;1.13;;
63784;SDS011;49927;48.146;11.420;2022-09-13T12:47:36;0.80;;;0.80;;
63784;SDS011;49927;48.146;11.420;2022-09-13T12:50:15;2.90;;;0.70;;
63784;SDS011;49927;48.146;11.420;2022-09-13T12:52:46;1.15;;;1.00;;
63784;SDS011;49927;48.146;11.420;2022-09-13T13:01:20;0.75;;;0.73;;
63784;SDS011;49927;48.146;11.420;2022-09-13T13:03:49;1.05;;;0.70;;
63784;SDS011;49927;48.146;11.420;2022-09-13T13:06:20;1.25;;;1.15;;
63784;SDS011;49927;48.146;11.420;2022-09-13T13:08:50;0.82;;;0.75;;
63784;SDS011;49927;48.146;11.420;2022-09-13T13:11:18;2.47;;;1.00;;
63784;SDS011;49927;48.146;11.420;2022-09-13T13:13:52;2.65;;;0.95;;
63784;SDS011;49927;48.146;11.420;2022-09-13T13:16:21;1.40;;;0.85;;
63784;SDS011;49927;48.146;11.420;2022-09-13T13:18:49;2.03;;;1.00;;
63784;SDS011;49927;48.146;11.420;2022-09-13T13:21:26;2.35;;;0.85;;
63784;SDS011;49927;48.146;11.420;2022-09-13T13:26:58;0.90;;;0.90;;
63784;SDS011;49927;48.146;11.420;2022-09-13T13:29:24;5.07;;;1.10;;
63784;SDS011;49927;48.146;11.420;2022-09-13T13:32:09;0.90;;;0.90;;
63784;SDS011;49927;48.146;11.420;2022-09-13T13:34:41;2.40;;;1.10;;
63784;SDS011;49927;48.146;11.420;2022-09-13T13:37:27;5.72;;;1.10;;
63784;SDS011;49927;48.146;11.420;2022-09-13T13:42:51;0.80;;;0.80;;
63784;SDS011;49927;48.146;11.420;2022-09-13T13:45:48;4.88;;;1.05;;
63784;SDS011;49927;48.146;11.420;2022-09-13T13:48:34;1.13;;;1.10;;
63784;SDS011;49927;48.146;11.420;2022-09-13T13:53:59;0.70;;;0.70;;
63784;SDS011;49927;48.146;11.420;2022-09-13T13:56:32;0.90;;;0.80;;
63784;SDS011;49927;48.146;11.420;2022-09-13T13:59:02;0.85;;;0.70;;
63784;SDS011;49927;48.146;11.420;2022-09-13T14:01:33;1.20;;;1.00;;
63784;SDS011;49927;48.146;11.420;2022-09-13T14:04:05;0.90;;;0.90;;
63784;SDS011;49927;48.146;11.420;2022-09-13T14:07:03;1.45;;;0.90;;
63784;SDS011;49927;48.146;11.420;2022-09-13T14:09:45;0.75;;;0.75;;
63784;SDS011;49927;48.146;11.420;2022-09-13T14:12:19;1.38;;;0.90;;
63784;SDS011;49927;48.146;11.420;2022-09-13T14:14:53;1.02;;;0.93;;
63784;SDS011;49927;48.146;11.420;2022-09-13T14:17:38;1.55;;;1.00;;
63784;SDS011;49927;48.146;11.420;2022-09-13T14:20:15;4.65;;;1.17;;
63784;SDS011;49927;48.146;11.420;2022-09-13T14:22:43;2.17;;;1.10;;
63784;SDS011;49927;48.146;11.420;2022-09-13T14:25:12;1.42;;;0.90;;
63784;SDS011;49927;48.146;11.420;2022-09-13T14:27:40;1.27;;;1.10;;
63784;SDS011;49927;48.146;11.420;2022-09-13T14:30:16;1.17;;;1.10;;
63784;SDS011;49927;48.146;11.420;2022-09-13T14:32:44;1.17;;;0.85;;
63784;SDS011;49927;48.146;11.420;2022-09-13T14:35:21;2.30;;;0.82;;
63784;SDS011;49927;48.146;11.420;2022-09-13T14:37:50;1.25;;;0.95;;
63784;SDS011;49927;48.146;11.420;2022-09-13T14:40:16;1.02;;;0.80;;
63784;SDS011;49927;48.146;11.420;2022-09-13T14:42:43;1.88;;;1.48;;
63784;SDS011;49927;48.146;11.420;2022-09-13T14:45:11;0.95;;;0.85;;
63784;SDS011;49927;48.146;11.420;2022-09-13T14:47:39;3.17;;;0.90;;
63784;SDS011;49927;48.146;11.420;2022-09-13T14:50:12;1.48;;;1.10;;
63784;SDS011;49927;48.146;11.420;2022-09-13T14:52:40;0.75;;;0.75;;
63784;SDS011;49927;48.146;11.420;2022-09-13T14:55:12;1.45;;;0.90;;
63784;SDS011;49927;48.146;11.420;2022-09-13T14:57:40;1.02;;;0.90;;
63784;SDS011;49927;48.146;11.420;2022-09-13T15:00:14;1.85;;;0.88;;
63784;SDS011;49927;48.146;11.420;2022-09-13T15:02:43;1.95;;;0.93;;
63784;SDS011;49927;48.146;11.420;2022-09-13T15:05:11;2.47;;;1.70;;
63784;SDS011;49927;48.146;11.420;2022-09-13T15:07:38;3.42;;;0.95;;
63784;SDS011;49927;48.146;11.420;2022-09-13T15:10:05;3.40;;;0.90;;
63784;SDS011;49927;48.146;11.420;2022-09-13T15:12:34;3.70;;;0.90;;
63784;SDS011;49927;48.146;11.420;2022-09-13T15:15:16;0.93;;;0.82;;
63784;SDS011;49927;48.146;11.420;2022-09-13T15:17:53;2.35;;;1.10;;
63784;SDS011;49927;48.146;11.420;2022-09-13T15:20:19;2.15;;;0.90;;